Nicolás Romano

Скаут - Estudiantes
24 Июл 2027
Суббота
Продолжить

Характер

Адаптивность (10) Амбиции (13) Скандальность (12) Верность (3) Стрессоустойчивость (6) Профессионализм (16) Благородство (14) Темперамент (1)

Профиль

Стиль управления Демократичный
Лицензия Континентальная B
Решительность 6
Управление людьми 11
Мотивация 9
Дисциплина 15
Удовлетворённость
77%
Усталость
0%
Должность Скаут
Зарплата 73.6K в нед.
Контракт 14.03.2028

Производительность

Поведение Хорошее
Эффективность тренировок
25%
Развитие игроков
65%
Профилактика травм
65%
Тактическая реализация
50%

Недавние события

Оценил игрока только что
Участвовал в селекционном совещании только что
Рекомендовал трансферную цель только что
Участвовал в селекционном совещании 7 дн. назад
Рекомендовал трансферную цель 7 дн. назад
Участвовал в селекционном совещании 7 дн. назад
Участвовал в селекционном совещании 7 дн. назад
Участвовал в селекционном совещании 14 дн. назад

Текущее наблюдение

171
Игрок Клуб Статус Способность Уверенность Наблюдений Последнее наблюдение Последний голос
Jack Bonham Bolton Wanderers Упущен 114 / 107 40% 1 19.07.2027 -
Carl Rushworth Coventry City Активный 135 / 143 40% 1 19.07.2027 -
Juan Brunetta Torino Активный 148 / 144 40% 5 22.06.2027 -
Lucas Boyé Alavés Активный 148 / 142 40% 1 22.06.2027 -
Mathias Jørgensen Blackburn Rovers Активный 112 / 124 40% 1 17.06.2027 -
Thiago Silvero Sevilla Активный 114 / 127 40% 1 07.06.2027 -
Alan Velasco Boca Juniors Активный 128 / 133 48% 1 06.06.2027 -
Enzo Cardozo Virtus Entella Активный 112 / 120 40% 1 06.06.2027 -
Tobías Andrada Betis Активный 127 / 125 40% 1 06.06.2027 -
Thiago Almada Fiorentina Активный 145 / 146 69% 1 01.06.2027 За
Callum O'Hare Sheffield United Активный 121 / 129 40% 1 31.05.2027 -
Jacob Greaves Ipswich Town Активный 131 / 140 40% 4 29.05.2027 -
Óscar Mingueza Crystal Palace Активный 150 / 154 40% 2 28.05.2027 -
Quinten Timber Crystal Palace Активный 162 / 155 40% 2 28.05.2027 -
Adam Wharton Crystal Palace Активный 151 / 159 40% 2 27.05.2027 -
Yehor Yarmoliuk Brentford Активный 138 / 146 40% 4 26.05.2027 -
Brooke Norton-Cuffy Hull City Активный 145 / 140 40% 2 25.05.2027 -
Bobby Thomas Coventry City Активный 133 / 131 40% 1 25.05.2027 -
Tino Livramento Newcastle United Активный 166 / 162 40% 3 24.05.2027 -
Mathías Olivera Cesena Активный 154 / 149 40% 3 24.05.2027 -
Ronald Swansea City Активный 126 / 123 40% 1 24.05.2027 -
Xaver Schlager Nottingham Forest Активный 140 / 153 40% 2 23.05.2027 -
Manu Koné AS Roma Активный 175 / 166 40% 1 22.05.2027 -
Brennan Johnson Everton Активный 136 / 148 40% 2 21.05.2027 -
Ryan Sessegnon Fulham Активный 143 / 146 40% 2 19.05.2027 -
Isma Ruiz Córdoba Активный 128 / 129 40% 4 17.05.2027 -
Nico González Newcastle United Активный 173 / 161 40% 1 16.05.2027 -
Igor Burnley Активный 146 / 144 40% 3 15.05.2027 -
Leon Goretzka Aston Villa Активный 157 / 154 40% 3 14.05.2027 Наблюдать
Ismaïla Sarr Crystal Palace Активный 142 / 144 40% 2 13.05.2027 -
Tyrell Malacia Derby County Активный 142 / 135 40% 1 13.05.2027 -
Welington Southampton Активный 138 / 128 40% 2 11.05.2027 -
Ethan Galbraith Swansea City Активный 144 / 135 40% 1 10.05.2027 -
Boubacar Kamara Aston Villa Активный 161 / 164 40% 3 09.05.2027 -
Omar Alderete Sunderland Активный 141 / 147 40% 1 09.05.2027 -
Julio Enciso Ipswich Town Активный 154 / 150 40% 3 08.05.2027 Наблюдать
Mikkel Damsgaard Brentford Активный 153 / 148 40% 1 08.05.2027 -
Demarai Gray Birmingham Активный 123 / 125 40% 4 06.05.2027 -
Rumarn Burrell Queens Park Rangers Активный 124 / 120 40% 2 06.05.2027 -
Emile Smith Rowe Fulham Активный 160 / 154 40% 3 05.05.2027 -
Agustín Hausch Caracas Активный 109 / 123 40% 1 05.05.2027 -
Max Bird Birmingham Активный 131 / 133 40% 2 02.05.2027 -
Ramón Terrats Getafe Активный 148 / 145 40% 5 30.04.2027 -
Nathan Collins Brentford Активный 143 / 142 40% 3 30.04.2027 -
Marcus Edwards Burnley Активный 132 / 141 40% 1 30.04.2027 -
Saša Lukić Ipswich Town Активный 148 / 139 40% 4 28.04.2027 -
Nahuel Molina AS Roma Активный 149 / 143 40% 3 26.04.2027 -
Enzo Barrenechea Burnley Активный 161 / 151 40% 3 24.04.2027 -
Harry Clarke Preston Активный 134 / 124 40% 1 23.04.2027 -
Alex Scott Bournemouth Активный 156 / 147 40% 1 19.04.2027 -
Amadou Onana Newcastle United Активный 149 / 154 40% 2 17.04.2027 -
Sven Botman Newcastle United Активный 151 / 154 40% 1 16.04.2027 -
Yankuba Minteh Brighton Активный 149 / 149 40% 1 16.04.2027 -
Jack Rudoni Coventry City Активный 146 / 133 40% 1 15.04.2027 -
Kiernan Dewsbury-Hall Everton Активный 155 / 152 40% 2 12.04.2027 -
Assane Diao Como Активный 152 / 150 40% 5 12.04.2027 -
Matías Soulé AS Roma Активный 162 / 161 40% 3 06.04.2027 -
Jordan Lotomba Bloemfontein Celtic Активный 145 / 117 40% 1 03.04.2027 -
Adrien Truffert Bournemouth Активный 140 / 145 40% 1 03.04.2027 -
Milan van Ewijk Coventry City Активный 140 / 135 40% 1 02.04.2027 -
Tyler Adams Bournemouth Активный 154 / 155 40% 1 02.04.2027 -
Daniel Muñoz Nottingham Forest Активный 138 / 146 40% 3 01.04.2027 -
Nordi Mukiele Sunderland Активный 149 / 146 40% 1 01.04.2027 -
Tariq Lamptey Queens Park Rangers Активный 128 / 136 40% 1 30.03.2027 -
Solly March Brighton Активный 154 / 147 40% 2 28.03.2027 -
Georges-Kévin Nkoudou Al-Diriyah Активный 148 / 127 40% 2 24.03.2027 -
Nicolas Jackson Aston Villa Активный 146 / 152 40% 2 23.03.2027 -
Anton Stach Leeds United Активный 150 / 150 40% 1 21.03.2027 -
Carlos Vicente Udinese Активный 146 / 139 40% 2 14.03.2027 -
Liam Delap Nottingham Forest Активный 155 / 145 40% 1 10.03.2027 -
Oussama Idrissi Ferencvaros Активный 140 / 142 40% 4 09.03.2027 -
Santiago Pierotti Lecce Активный 123 / 131 40% 4 06.03.2027 -
Helinho Toluca Активный 115 / 131 40% 2 06.03.2027 -
Jacob Ramsey Newcastle United Активный 137 / 146 40% 2 04.03.2027 -
Chemsdine Talbi Sunderland Активный 142 / 149 40% 1 04.03.2027 Нужно больше данных
Kevin Schade Brentford Активный 160 / 146 40% 2 03.03.2027 Нужно больше данных
Marquinhos Spartak Moscow Активный 136 / 135 40% 5 02.03.2027 -
Carlos Alcaraz Everton Активный 137 / 144 40% 4 01.03.2027 -
Luca Orellano Atlético Madrid Активный 132 / 138 40% 2 28.02.2027 -
Pablo Solari Spartak Moscow Активный 118 / 122 40% 3 27.02.2027 -
Jeon Jin-Woo Sheffield Wednesday Активный 139 / 133 40% 1 27.02.2027 -
Giovani Lo Celso AC Milan Активный 144 / 153 40% 1 25.02.2027 -
Todd Cantwell Blackburn Rovers Активный 141 / 127 40% 1 11.02.2027 -
Zizo Al Ahly Активный 125 / 132 40% 1 10.02.2027 -
Petar Stanić Ludogorets Активный 124 / 129 40% 1 05.02.2027 -
Kevin Fulham Активный 155 / 144 40% 1 04.02.2027 -
Gerónimo Rivera Al Wahda Активный 121 / 120 40% 1 04.02.2027 -
Ali Ahmed Norwich City Активный 128 / 124 40% 1 30.12.2026 -
Christian Krasnodar Активный 145 / 137 40% 2 24.12.2026 -
Musab Al-Juwayr Al-Qadisiyah Активный 133 / 131 40% 1 21.12.2026 -
Damián Puebla Orenburg Активный 141 / 123 40% 2 08.12.2026 -
Lamine Cissé Peterborough United Активный 121 / 119 40% 1 08.12.2026 -
Reda Khadra Qarabag Активный 135 / 129 40% 1 07.12.2026 -
Florentino Luís Ipswich Town Активный 128 / 138 40% 1 07.12.2026 -
Ivan Toney Al-Ahli Активный 148 / 155 40% 3 28.11.2026 -
Léo Scienza Southampton Активный 130 / 133 40% 1 26.11.2026 -
Yoane Wissa Newcastle United Активный 137 / 144 40% 2 25.11.2026 Нужно больше данных
Emiliano Buendía Aston Villa Активный 136 / 140 40% 2 22.11.2026 -
Kenny Tete Fulham Активный 147 / 138 40% 2 21.11.2026 -
Szabolcs Szoboszlai Haladas Активный 136 / 135 40% 1 21.11.2026 -
Mauro Arambarri River Plate Активный 141 / 150 40% 6 20.11.2026 -
Troy Parrott Betis Активный 127 / 137 40% 1 19.11.2026 -
Ammar Ramadan DAC Dunajska Streda Активный 118 / 122 40% 1 18.11.2026 -
Jacob Murphy Newcastle United Активный 128 / 138 40% 1 16.11.2026 -
Brais Méndez Columbus Crew Активный 159 / 155 40% 3 15.11.2026 -
Nicolás Domínguez Nottingham Forest Активный 154 / 138 40% 2 15.11.2026 -
Lorenzo Colombo Genoa Активный 129 / 132 40% 1 13.11.2026 -
Malcom Al Jazira Активный 153 / 151 40% 1 12.11.2026 Нужно больше данных
Leandro Trossard Besiktas Активный 171 / 162 40% 4 11.11.2026 -
Loum Tchaouna Coventry City Активный 131 / 134 40% 1 10.11.2026 -
Luke McNally Bristol City Активный 129 / 126 40% 1 09.11.2026 -
Luca Langoni New England Revolution Активный 113 / 131 40% 1 09.11.2026 -
David Brooks Bournemouth Активный 130 / 134 40% 1 06.11.2026 -
Leon Bailey Olympiacos Активный 138 / 147 40% 1 05.11.2026 -
Clemente Montes Universidad Catolica Активный 130 / 122 40% 2 03.11.2026 -
Tadeo Allende Inter Miami CF Активный 108 / 128 40% 1 02.11.2026 -
Ritsu Doan Gamba Osaka Активный 154 / 146 40% 2 31.10.2026 -
Karim Konaté Red Bull Salzburg Активный 123 / 136 40% 1 31.10.2026 -
Eddie Nketiah Crystal Palace Активный 145 / 134 40% 1 29.10.2026 -
Luka Jović AEK Активный 121 / 142 40% 1 27.10.2026 -
Tijjani Reijnders Al-Qadisiyah Активный 143 / 155 40% 1 27.10.2026 -
Wilson Isidor Sunderland Активный 126 / 137 40% 1 24.10.2026 -
Callum Doyle Wrexham Активный 127 / 129 40% 1 24.10.2026 -
David Romero Parma Активный 123 / 123 40% 1 23.10.2026 -
Marin Benko Zadar Активный 123 / 123 40% 1 23.10.2026 -
Taty Castellanos West Ham United Активный 134 / 147 40% 1 20.10.2026 -
Ayrton Costa Boca Juniors Активный 116 / 129 40% 2 19.10.2026 -
Marcos López San Martín Активный 121 / 130 40% 1 18.10.2026 -
Bruno Larregui Juventud Активный 131 / 120 40% 2 17.10.2026 -
Ramiro Ruiz Rodríguez Atlético Tucumán Активный 130 / 125 40% 2 17.10.2026 -
Diego Gómez Brighton Активный 144 / 143 40% 1 17.10.2026 -
Jens Petter Hauge Bodo/Glimt Активный 126 / 131 40% 1 17.10.2026 -
Taiwo Awoniyi Coventry City Активный 127 / 139 40% 1 14.10.2026 -
Maxim Glushenkov Zenit Активный 132 / 134 40% 1 14.10.2026 -
Steven Bergwijn Al-Ittihad Активный 128 / 143 40% 4 13.10.2026 -
Tomáš Chorý Spartak Moscow Активный 123 / 140 40% 2 13.10.2026 -
Allan Saint-Maximin Charlotte Football Club Активный 144 / 138 40% 3 08.10.2026 -
John McGinn Aston Villa Активный 137 / 145 40% 1 08.10.2026 -
Facundo Batista Penarol Активный 124 / 114 40% 1 06.10.2026 -
Riqui Puig LA Galaxy Активный 133 / 135 40% 1 04.10.2026 -
Dávid Strelec Middlesbrough Активный 134 / 132 40% 2 02.10.2026 -
Dwight McNeil Crystal Palace Активный 146 / 140 40% 1 02.10.2026 -
Kerem Aktürkoğlu Fenerbahce Активный 122 / 132 40% 2 30.09.2026 -
Alejandro Zendejas Club America Активный 131 / 141 40% 1 27.09.2026 -
Dejan Joveljić Seattle Sounders Активный 111 / 123 40% 1 26.09.2026 -
Liel Abada Charlotte Football Club Активный 130 / 129 40% 1 25.09.2026 -
Agustín Palavecino Cruz Azul Активный 139 / 136 40% 4 24.09.2026 -
Carlos Álvarez Club America Активный 134 / 133 40% 2 23.09.2026 -
Takuma Asano Sanfrecce Hiroshima Активный 127 / 127 40% 1 23.09.2026 -
Erik Lira Cruz Azul Активный 133 / 139 40% 2 20.09.2026 -
Ricardo Pepi Napoli Активный 138 / 148 40% 2 16.09.2026 Нужно больше данных
Rodrigo Huescas FC Copenhagen Активный 138 / 136 40% 1 16.09.2026 -
Evander FC Cincinnati Активный 149 / 138 40% 2 10.09.2026 -
Yasuto Wakizaka Kawasaki Frontale Активный 141 / 132 40% 1 09.09.2026 -
Luis Romo Tigres Активный 154 / 130 40% 1 08.09.2026 -
Ollie Watkins Al-Hilal Активный 131 / 155 40% 3 06.09.2026 -
Paxten Aaronson Colorado Rapids Активный 129 / 131 40% 1 01.09.2026 -
Orbelín Pineda Monterrey Активный 122 / 142 40% 1 01.09.2026 -
Lucas Torreira Galatasaray Активный 146 / 143 40% 3 30.08.2026 -
Youssef En-Nesyri Al-Ittihad Активный 151 / 140 40% 2 29.08.2026 -
Esequiel Barco Spartak Moscow Активный 122 / 139 40% 1 28.08.2026 -
Sergio Reguilón Inter Miami CF Активный 116 / 142 40% 1 25.08.2026 -
Gustavo Puerta Olympiacos Активный 118 / 133 40% 1 24.08.2026 -
Alexey Batrakov Galatasaray Активный 143 / 148 40% 2 20.08.2026 -
Théo Hernández Al-Hilal Активный 140 / 147 40% 1 16.08.2026 -
Carlos Rodríguez Cruz Azul Активный 118 / 131 40% 1 14.08.2026 -
Breel Embolo Atlanta United FC Активный 128 / 145 40% 1 12.08.2026 -
Andreas Hanche-Olsen Chicago Fire Активный 115 / 139 40% 1 11.08.2026 -
Juan David Cabal Juventus Активный 149 / 145 40% 1 09.08.2026 -
Alan Varela Porto Активный 145 / 138 40% 1 06.08.2026 -
Tarik Muharemović Leeds United Активный 144 / 137 40% 1 03.08.2026 -